createdAt,value
2023-03-01T00:02:12.179Z,194.77
2023-03-01T00:04:39.750Z,207.55
2023-03-01T00:07:07.291Z,203.15
2023-03-01T00:09:34.802Z,206.77
2023-03-01T00:12:02.249Z,218.63
2023-03-01T00:14:29.865Z,214.18
2023-03-01T00:16:57.394Z,231.82
2023-03-01T00:19:25.035Z,210.65
2023-03-01T00:21:52.515Z,185.18
2023-03-01T00:24:20.082Z,201.63
2023-03-01T00:26:47.831Z,221.43
2023-03-01T00:29:15.293Z,187.25
2023-03-01T00:31:42.766Z,193.05
2023-03-01T00:34:10.976Z,199.10
2023-03-01T00:36:38.983Z,180.80
2023-03-01T00:39:07.301Z,173.82
2023-03-01T00:41:36.044Z,186.88
2023-03-01T00:44:03.667Z,196.40
2023-03-01T00:46:35.462Z,187.82
2023-03-01T00:49:03.435Z,199.98
2023-03-01T00:51:31.041Z,229.80
2023-03-01T00:53:59.305Z,244.43
2023-03-01T00:56:26.730Z,274.95
2023-03-01T00:58:54.236Z,267.15
2023-03-01T01:01:22.755Z,272.58
2023-03-01T01:03:51.126Z,225.18
2023-03-01T01:06:19.521Z,213.38
2023-03-01T01:08:46.996Z,178.93
2023-03-01T01:11:14.552Z,145.38
2023-03-01T01:13:42.055Z,160.35
2023-03-01T01:16:09.855Z,139.35
2023-03-01T01:18:37.458Z,133.13
2023-03-01T01:21:05.983Z,137.50
2023-03-01T01:23:33.525Z,147.45
2023-03-01T01:26:05.371Z,135.93
2023-03-01T01:28:33.142Z,127.93
2023-03-01T01:31:00.685Z,131.52
2023-03-01T01:33:28.350Z,130.70
2023-03-01T01:35:56.042Z,98.82
2023-03-01T01:38:23.595Z,83.57
2023-03-01T01:40:51.475Z,77.40
2023-03-01T01:43:20.204Z,77.60
2023-03-01T01:45:47.750Z,78.80
2023-03-01T01:48:17.349Z,74.05
2023-03-01T01:50:48.900Z,69.68
2023-03-01T01:53:19.632Z,74.18
2023-03-01T01:55:47.895Z,77.20
2023-03-01T01:58:16.272Z,82.57
2023-03-01T02:00:43.727Z,78.50
2023-03-01T02:03:15.327Z,67.97
2023-03-01T02:05:45.379Z,66.25
2023-03-01T02:08:13.402Z,72.65
2023-03-01T02:10:40.976Z,74.85
2023-03-01T02:13:08.599Z,81.82
2023-03-01T02:15:36.536Z,80.68
2023-03-01T02:18:04.339Z,58.30
2023-03-01T02:20:35.663Z,60.00
2023-03-01T02:23:03.121Z,61.00
2023-03-01T02:25:35.918Z,58.47
2023-03-01T02:28:12.292Z,56.78
2023-03-01T02:30:59.681Z,63.70
2023-03-01T02:33:27.814Z,106.50
2023-03-01T02:35:55.511Z,110.05
2023-03-01T02:38:22.960Z,113.00
2023-03-01T02:40:50.944Z,124.32
2023-03-01T02:43:18.362Z,118.22
2023-03-01T02:45:54.900Z,128.60
2023-03-01T02:48:22.374Z,127.88
2023-03-01T02:51:09.273Z,132.45
2023-03-01T02:53:39.502Z,137.88
2023-03-01T02:56:06.882Z,133.95
2023-03-01T02:58:41.718Z,121.60
2023-03-01T03:01:10.356Z,133.82
2023-03-01T03:03:37.958Z,128.55
2023-03-01T03:06:05.478Z,118.07
2023-03-01T03:08:32.903Z,109.63
2023-03-01T03:11:00.319Z,120.95
2023-03-01T03:13:29.641Z,115.95
2023-03-01T03:15:57.511Z,128.65
2023-03-01T03:18:27.018Z,119.22
2023-03-01T03:20:54.524Z,117.57
2023-03-01T03:23:22.566Z,103.07
2023-03-01T03:25:50.877Z,95.05
2023-03-01T03:28:18.320Z,91.40
2023-03-01T03:30:45.888Z,92.25
2023-03-01T03:33:14.028Z,99.80
2023-03-01T03:35:48.652Z,97.75
2023-03-01T03:38:16.808Z,121.35
2023-03-01T03:40:48.171Z,106.85
2023-03-01T03:43:19.900Z,106.97
2023-03-01T03:45:47.709Z,98.20
2023-03-01T03:48:15.229Z,109.70
2023-03-01T03:50:42.752Z,111.72
2023-03-01T03:53:11.214Z,104.70
2023-03-01T03:55:40.478Z,115.93
2023-03-01T03:58:08.908Z,117.75
2023-03-01T04:00:37.414Z,125.18
2023-03-01T04:03:04.914Z,119.40
2023-03-01T04:05:32.558Z,117.75
2023-03-01T04:08:02.665Z,131.65
2023-03-01T04:10:33.132Z,119.78
2023-03-01T04:13:00.704Z,119.18
2023-03-01T04:15:48.560Z,119.80
2023-03-01T04:18:16.346Z,113.28
2023-03-01T04:20:44.014Z,118.28
2023-03-01T04:23:20.313Z,108.75
2023-03-01T04:25:54.955Z,122.07
2023-03-01T04:28:26.365Z,115.20
2023-03-01T04:30:54.714Z,109.57
2023-03-01T04:33:22.178Z,99.10
2023-03-01T04:36:01.615Z,108.40
2023-03-01T04:38:30.597Z,121.40
2023-03-01T04:40:57.972Z,116.40
2023-03-01T04:43:25.358Z,118.38
2023-03-01T04:45:52.847Z,114.68
2023-03-01T04:48:20.328Z,108.93
2023-03-01T04:50:47.769Z,115.90
2023-03-01T04:53:15.244Z,109.35
2023-03-01T04:55:42.654Z,104.90
2023-03-01T04:58:10.297Z,95.00
2023-03-01T05:00:37.743Z,89.05
2023-03-01T05:03:05.221Z,80.13
2023-03-01T05:05:33.752Z,69.70
2023-03-01T05:08:01.870Z,78.72
2023-03-01T05:10:33.186Z,81.35
2023-03-01T05:13:00.683Z,82.05
2023-03-01T05:15:29.003Z,86.47
2023-03-01T05:17:56.933Z,73.57
2023-03-01T05:20:24.339Z,87.22
2023-03-01T05:22:52.215Z,85.45
2023-03-01T05:25:19.697Z,70.32
2023-03-01T05:27:47.339Z,71.10
2023-03-01T05:30:14.950Z,67.65
2023-03-01T05:32:44.164Z,76.03
2023-03-01T05:35:14.320Z,85.85
2023-03-01T05:37:42.720Z,96.45
2023-03-01T05:40:16.658Z,91.20
2023-03-01T05:42:47.512Z,93.68
2023-03-01T05:45:15.146Z,87.95
2023-03-01T05:47:45.838Z,92.85
2023-03-01T05:50:13.250Z,104.07
2023-03-01T05:52:40.792Z,111.63
2023-03-01T05:55:08.459Z,98.15
2023-03-01T05:57:35.879Z,90.35
2023-03-01T06:00:03.710Z,80.13
2023-03-01T06:02:31.123Z,80.03
2023-03-01T06:04:58.736Z,74.43
2023-03-01T06:07:26.257Z,80.40
2023-03-01T06:09:53.680Z,68.32
2023-03-01T06:12:21.101Z,63.95
2023-03-01T06:14:48.976Z,61.25
2023-03-01T06:17:16.393Z,66.47
2023-03-01T06:19:43.918Z,59.63
2023-03-01T06:22:11.304Z,61.20
2023-03-01T06:24:38.789Z,85.00
2023-03-01T06:27:06.238Z,84.53
2023-03-01T06:29:33.664Z,92.03
2023-03-01T06:32:01.081Z,85.68
2023-03-01T06:34:28.948Z,83.15
2023-03-01T06:36:56.345Z,94.28
2023-03-01T06:39:23.752Z,101.05
2023-03-01T06:41:51.520Z,102.68
2023-03-01T06:44:19.536Z,109.80
2023-03-01T06:46:47.371Z,108.47
2023-03-01T06:49:14.869Z,105.30
2023-03-01T06:51:42.319Z,130.27
2023-03-01T06:54:09.839Z,131.25
2023-03-01T06:56:37.305Z,121.43
2023-03-01T06:59:04.772Z,126.35
2023-03-01T07:01:32.545Z,148.38
2023-03-01T07:04:00.113Z,145.63
2023-03-01T07:06:29.764Z,124.97
2023-03-01T07:08:57.538Z,130.55
2023-03-01T07:11:25.139Z,118.63
2023-03-01T07:13:53.106Z,117.45
2023-03-01T07:16:21.710Z,116.53
2023-03-01T07:18:49.226Z,100.60
2023-03-01T07:21:17.657Z,107.03
2023-03-01T07:23:45.174Z,112.88
2023-03-01T07:26:12.615Z,108.85
2023-03-01T07:28:40.586Z,107.43
2023-03-01T07:31:08.251Z,111.15
2023-03-01T07:33:35.845Z,105.65
2023-03-01T07:36:04.608Z,115.80
2023-03-01T07:38:32.393Z,104.70
2023-03-01T07:41:03.208Z,113.68
2023-03-01T07:43:31.071Z,113.93
2023-03-01T07:46:02.256Z,119.03
2023-03-01T07:48:30.219Z,115.97
2023-03-01T07:51:07.168Z,116.32
2023-03-01T07:53:35.445Z,112.53
2023-03-01T07:56:05.569Z,113.15
2023-03-01T07:58:33.109Z,107.80
2023-03-01T08:01:03.561Z,110.38
2023-03-01T08:03:31.236Z,118.13
2023-03-01T08:06:00.301Z,103.80
2023-03-01T08:08:27.975Z,106.45
2023-03-01T08:10:58.045Z,118.80
2023-03-01T08:13:25.555Z,113.63
2023-03-01T08:15:52.998Z,117.57
2023-03-01T08:18:20.554Z,118.13
2023-03-01T08:20:48.346Z,112.30
2023-03-01T08:23:16.013Z,106.65
2023-03-01T08:25:43.728Z,98.15
2023-03-01T08:28:11.320Z,106.20
2023-03-01T08:30:38.797Z,101.40
2023-03-01T08:33:07.076Z,106.65
2023-03-01T08:35:34.582Z,99.82
2023-03-01T08:38:02.031Z,111.07
2023-03-01T08:40:29.526Z,109.75
2023-03-01T08:42:57.047Z,106.90
2023-03-01T08:45:24.632Z,113.38
2023-03-01T08:47:54.503Z,128.38
2023-03-01T08:50:21.969Z,116.60
2023-03-01T08:52:49.480Z,108.30
2023-03-01T08:55:18.340Z,104.18
2023-03-01T08:57:46.012Z,122.88
2023-03-01T09:00:16.136Z,122.78
2023-03-01T09:02:43.847Z,129.38
2023-03-01T09:05:11.350Z,191.25
2023-03-01T09:07:38.731Z,160.18
2023-03-01T09:10:06.561Z,141.45
2023-03-01T09:12:34.135Z,138.57
2023-03-01T09:15:01.807Z,134.10
2023-03-01T09:17:32.289Z,127.25
2023-03-01T09:20:00.849Z,131.77
2023-03-01T09:22:28.580Z,118.07
2023-03-01T09:25:00.606Z,129.13
2023-03-01T09:27:28.146Z,121.32
2023-03-01T09:29:57.472Z,112.07
2023-03-01T09:32:24.848Z,123.22
2023-03-01T09:35:07.572Z,109.05
2023-03-01T09:37:35.452Z,107.30
2023-03-01T09:40:04.651Z,102.25
2023-03-01T09:42:34.135Z,103.28
2023-03-01T09:45:07.006Z,107.88
2023-03-01T09:47:37.826Z,105.93
2023-03-01T09:50:18.014Z,105.22
2023-03-01T09:53:02.536Z,121.15
2023-03-01T09:55:50.422Z,109.78
2023-03-01T09:58:38.199Z,130.18
2023-03-01T10:01:34.055Z,127.75
2023-03-01T10:04:20.444Z,147.70
2023-03-01T10:06:52.496Z,137.07
2023-03-01T10:09:20.030Z,146.20
2023-03-01T10:11:48.104Z,131.85
2023-03-01T10:14:34.056Z,117.68
2023-03-01T10:17:04.104Z,119.93
2023-03-01T10:19:33.129Z,121.95
2023-03-01T10:22:03.739Z,125.28
2023-03-01T10:24:31.352Z,117.93
2023-03-01T10:27:00.284Z,112.30
2023-03-01T10:29:36.870Z,114.53
2023-03-01T10:32:05.087Z,116.88
2023-03-01T10:34:33.853Z,101.35
2023-03-01T10:37:11.997Z,111.97
2023-03-01T10:39:39.469Z,109.97
2023-03-01T10:42:07.520Z,121.25
2023-03-01T10:44:49.124Z,121.03
2023-03-01T10:47:21.601Z,123.75
2023-03-01T10:50:02.538Z,127.32
2023-03-01T10:52:39.962Z,122.57
2023-03-01T10:55:26.561Z,123.13
2023-03-01T10:57:59.100Z,136.00
2023-03-01T11:00:27.143Z,137.25
2023-03-01T11:02:54.935Z,140.10
2023-03-01T11:05:25.119Z,143.55
2023-03-01T11:08:01.979Z,145.73
2023-03-01T11:10:30.466Z,148.35
2023-03-01T11:13:17.321Z,152.73
2023-03-01T11:15:44.963Z,142.55
2023-03-01T11:18:24.969Z,149.48
2023-03-01T11:20:54.409Z,147.30
2023-03-01T11:23:21.986Z,176.02
2023-03-01T11:25:59.289Z,166.18
2023-03-01T11:28:27.381Z,155.13
2023-03-01T11:31:09.037Z,152.93
2023-03-01T11:33:39.064Z,149.88
2023-03-01T11:36:09.648Z,158.07
2023-03-01T11:38:37.345Z,160.98
2023-03-01T11:41:09.483Z,154.85
2023-03-01T11:43:43.812Z,161.00
2023-03-01T11:46:12.821Z,158.35
2023-03-01T11:48:52.712Z,159.80
2023-03-01T11:51:27.214Z,148.10
2023-03-01T11:54:12.395Z,163.52
2023-03-01T11:56:43.949Z,152.27
2023-03-01T11:59:20.448Z,153.90
2023-03-01T12:01:50.947Z,148.40
2023-03-01T12:04:37.086Z,154.20
2023-03-01T12:07:10.571Z,165.38
2023-03-01T12:09:47.521Z,162.57
2023-03-01T12:12:17.933Z,166.30
2023-03-01T12:14:57.806Z,174.43
2023-03-01T12:17:32.542Z,167.35
2023-03-01T12:20:14.741Z,160.93
2023-03-01T12:22:45.235Z,164.23
2023-03-01T12:25:30.142Z,167.30
2023-03-01T12:28:10.149Z,164.35
2023-03-01T12:30:48.904Z,174.70
2023-03-01T12:33:19.428Z,192.77
2023-03-01T12:35:56.158Z,194.48
2023-03-01T12:38:38.970Z,206.05
2023-03-01T12:41:18.537Z,218.50
2023-03-01T12:44:05.784Z,217.32
2023-03-01T12:46:48.628Z,224.48
2023-03-01T12:49:17.109Z,231.48
2023-03-01T12:51:46.281Z,247.15
2023-03-01T12:54:17.019Z,257.58
2023-03-01T12:56:45.493Z,231.32
2023-03-01T12:59:17.855Z,226.38
2023-03-01T13:01:54.037Z,223.30
2023-03-01T13:04:39.816Z,220.52
2023-03-01T13:07:07.402Z,229.82
2023-03-01T13:09:53.498Z,211.45
2023-03-01T13:12:39.764Z,198.50
2023-03-01T13:15:15.516Z,212.73
2023-03-01T13:17:44.107Z,205.02
2023-03-01T13:20:14.295Z,191.13
2023-03-01T13:22:54.273Z,194.07
2023-03-01T13:25:25.704Z,190.48
2023-03-01T13:27:55.098Z,194.20
2023-03-01T13:30:28.576Z,195.85
2023-03-01T13:32:56.251Z,193.32
2023-03-01T13:35:23.875Z,188.63
2023-03-01T13:37:51.281Z,188.68
2023-03-01T13:40:21.901Z,185.00
2023-03-01T13:43:04.173Z,198.20
2023-03-01T13:45:39.227Z,188.13
2023-03-01T13:48:17.208Z,182.27
2023-03-01T13:50:50.018Z,182.32
2023-03-01T13:53:21.270Z,146.77
2023-03-01T13:56:00.031Z,166.40
2023-03-01T13:58:27.540Z,151.13
2023-03-01T14:00:59.046Z,190.85
2023-03-01T14:03:26.751Z,193.52
2023-03-01T14:06:11.556Z,196.95
2023-03-01T14:08:43.684Z,210.32
2023-03-01T14:11:11.328Z,202.57
2023-03-01T14:13:42.781Z,221.48
2023-03-01T14:16:19.312Z,214.88
2023-03-01T14:18:46.838Z,224.77
2023-03-01T14:21:15.085Z,245.10
2023-03-01T14:23:43.231Z,244.35
2023-03-01T14:26:12.982Z,245.63
2023-03-01T14:28:40.664Z,215.55
2023-03-01T14:31:53.259Z,210.20
2023-03-01T14:34:27.824Z,176.38
2023-03-01T14:36:55.660Z,145.98
2023-03-01T14:39:30.361Z,157.57
2023-03-01T14:42:02.564Z,185.18
2023-03-01T14:44:35.121Z,185.02
2023-03-01T14:47:03.414Z,181.75
2023-03-01T14:49:31.677Z,182.55
2023-03-01T14:52:03.143Z,200.45
2023-03-01T14:54:34.169Z,180.82
2023-03-01T14:57:01.962Z,208.15
2023-03-01T14:59:29.504Z,209.90
2023-03-01T15:01:57.838Z,212.18
2023-03-01T15:04:25.774Z,204.45
2023-03-01T15:06:53.728Z,195.02
2023-03-01T15:09:21.262Z,212.63
2023-03-01T15:11:48.683Z,223.07
2023-03-01T15:14:44.091Z,241.23
2023-03-01T15:17:32.699Z,250.93
2023-03-01T15:20:00.257Z,283.15
2023-03-01T15:22:27.959Z,280.00
2023-03-01T15:24:55.694Z,265.00
2023-03-01T15:27:24.152Z,270.00
2023-03-01T15:29:52.591Z,257.73
2023-03-01T15:32:33.429Z,247.05
2023-03-01T15:35:23.253Z,252.45
2023-03-01T15:37:51.057Z,252.20
2023-03-01T15:40:22.123Z,294.52
2023-03-01T15:42:49.760Z,301.88
2023-03-01T15:45:18.245Z,294.00
2023-03-01T15:47:49.596Z,265.08
2023-03-01T15:50:21.775Z,290.52
2023-03-01T15:52:49.192Z,306.17
2023-03-01T15:55:18.048Z,296.50
2023-03-01T15:57:45.738Z,293.55
2023-03-01T16:00:14.586Z,286.85
2023-03-01T16:02:42.557Z,289.52
2023-03-01T16:05:17.183Z,286.35
2023-03-01T16:07:44.575Z,290.88
2023-03-01T16:10:12.068Z,297.33
2023-03-01T16:12:40.305Z,289.38
2023-03-01T16:15:13.369Z,283.38
2023-03-01T16:17:40.952Z,281.92
2023-03-01T16:20:09.942Z,262.50
2023-03-01T16:22:38.744Z,267.83
2023-03-01T16:25:06.802Z,284.83
2023-03-01T16:27:34.177Z,280.55
2023-03-01T16:30:01.681Z,275.75
2023-03-01T16:32:29.110Z,276.13
2023-03-01T16:34:56.780Z,316.98
2023-03-01T16:37:24.239Z,309.23
2023-03-01T16:39:52.265Z,471.08
2023-03-01T16:42:20.177Z,363.52
2023-03-01T16:44:47.668Z,319.80
2023-03-01T16:47:15.125Z,331.63
2023-03-01T16:49:42.621Z,335.75
2023-03-01T16:52:10.035Z,360.63
2023-03-01T16:54:37.427Z,312.05
2023-03-01T16:57:05.823Z,314.77
2023-03-01T16:59:33.365Z,323.45
2023-03-01T17:02:00.922Z,298.88
2023-03-01T17:04:28.879Z,326.70
2023-03-01T17:06:56.308Z,295.98
2023-03-01T17:09:24.046Z,312.25
2023-03-01T17:11:51.665Z,313.80
2023-03-01T17:14:19.065Z,327.52
2023-03-01T17:16:46.484Z,361.05
2023-03-01T17:19:18.759Z,368.63
2023-03-01T17:21:46.404Z,389.05
2023-03-01T17:24:13.980Z,411.13
2023-03-01T17:26:41.844Z,386.92
2023-03-01T17:29:09.722Z,390.58
2023-03-01T17:31:37.322Z,383.55
2023-03-01T17:34:04.955Z,388.13
2023-03-01T17:36:34.757Z,359.15
2023-03-01T17:39:02.686Z,335.48
2023-03-01T17:41:30.415Z,301.13
2023-03-01T17:43:58.111Z,286.05
2023-03-01T17:46:27.111Z,271.58
2023-03-01T17:48:54.681Z,274.35
2023-03-01T17:51:22.456Z,277.73
2023-03-01T17:53:49.902Z,263.75
2023-03-01T17:56:17.365Z,270.30
2023-03-01T17:58:44.902Z,259.48
2023-03-01T18:01:14.197Z,259.55
2023-03-01T18:03:42.108Z,277.13
2023-03-01T18:06:13.360Z,277.70
2023-03-01T18:08:40.854Z,281.33
2023-03-01T18:11:11.292Z,263.10
2023-03-01T18:13:40.004Z,273.35
2023-03-01T18:16:14.523Z,263.87
2023-03-01T18:18:42.208Z,275.52
2023-03-01T18:21:09.755Z,261.77
2023-03-01T18:23:37.337Z,273.40
2023-03-01T18:26:08.062Z,274.58
2023-03-01T18:28:35.690Z,269.55
2023-03-01T18:31:04.123Z,275.30
2023-03-01T18:33:32.045Z,269.42
2023-03-01T18:35:59.792Z,275.65
2023-03-01T18:38:28.878Z,286.83
2023-03-01T18:40:56.517Z,273.67
2023-03-01T18:43:24.232Z,290.10
2023-03-01T18:45:57.225Z,272.65
2023-03-01T18:48:24.914Z,272.67
2023-03-01T18:50:52.759Z,254.77
2023-03-01T18:53:20.251Z,279.05
2023-03-01T18:55:47.693Z,285.67
2023-03-01T18:58:15.437Z,308.88
2023-03-01T19:00:43.301Z,309.92
2023-03-01T19:03:11.391Z,301.55
2023-03-01T19:05:38.852Z,297.77
2023-03-01T19:08:06.472Z,296.70
2023-03-01T19:10:34.037Z,306.38
2023-03-01T19:13:01.867Z,305.02
2023-03-01T19:15:29.433Z,287.00
2023-03-01T19:17:57.626Z,289.33
2023-03-01T19:20:25.120Z,285.27
2023-03-01T19:22:52.633Z,268.83
2023-03-01T19:25:20.393Z,272.85
2023-03-01T19:27:49.224Z,259.90
2023-03-01T19:30:16.787Z,210.40
2023-03-01T19:32:44.457Z,253.32
2023-03-01T19:35:12.259Z,256.83
2023-03-01T19:37:40.103Z,266.35
2023-03-01T19:40:12.060Z,258.60
2023-03-01T19:42:39.656Z,287.38
2023-03-01T19:45:07.493Z,321.60
2023-03-01T19:47:35.805Z,305.35
2023-03-01T19:50:03.326Z,297.65
2023-03-01T19:52:30.832Z,287.95
2023-03-01T19:55:09.075Z,308.13
2023-03-01T19:57:39.954Z,307.20
2023-03-01T20:00:07.807Z,295.77
2023-03-01T20:02:35.368Z,341.63
2023-03-01T20:05:05.942Z,333.35
2023-03-01T20:07:35.913Z,339.33
2023-03-01T20:10:03.496Z,315.08
2023-03-01T20:12:31.224Z,309.55
2023-03-01T20:14:58.985Z,335.80
2023-03-01T20:17:26.484Z,326.27
2023-03-01T20:19:54.138Z,308.88
2023-03-01T20:22:21.636Z,302.60
2023-03-01T20:24:49.098Z,293.05
2023-03-01T20:27:16.827Z,279.23
2023-03-01T20:29:48.527Z,260.42
2023-03-01T20:32:16.078Z,269.70
2023-03-01T20:34:43.656Z,264.27
2023-03-01T20:37:11.302Z,267.10
2023-03-01T20:39:38.815Z,277.67
2023-03-01T20:42:06.297Z,275.48
2023-03-01T20:44:34.417Z,276.42
2023-03-01T20:47:02.092Z,278.40
2023-03-01T20:49:29.634Z,286.75
2023-03-01T20:51:57.239Z,313.65
2023-03-01T20:54:24.706Z,341.15
2023-03-01T20:56:52.192Z,342.73
2023-03-01T20:59:19.617Z,329.80
2023-03-01T21:01:47.260Z,337.00
2023-03-01T21:04:14.965Z,400.02
2023-03-01T21:06:43.142Z,393.00
2023-03-01T21:09:10.673Z,403.40
2023-03-01T21:11:41.408Z,372.67
2023-03-01T21:14:09.931Z,417.83
2023-03-01T21:16:37.593Z,439.23
2023-03-01T21:19:05.049Z,361.17
2023-03-01T21:21:32.582Z,339.10
2023-03-01T21:24:00.039Z,341.38
2023-03-01T21:26:27.835Z,305.38
2023-03-01T21:28:56.601Z,273.25
2023-03-01T21:31:25.121Z,264.93
2023-03-01T21:33:53.338Z,258.48
2023-03-01T21:36:20.982Z,250.10
2023-03-01T21:38:48.744Z,270.02
2023-03-01T21:41:23.173Z,309.85
2023-03-01T21:43:51.157Z,294.27
2023-03-01T21:46:22.431Z,298.92
2023-03-01T21:48:50.096Z,288.08
2023-03-01T21:51:18.030Z,259.92
2023-03-01T21:53:45.684Z,307.83
2023-03-01T21:56:17.123Z,316.88
2023-03-01T21:58:44.593Z,299.70
2023-03-01T22:01:12.848Z,302.42
2023-03-01T22:03:46.047Z,309.15
2023-03-01T22:06:21.241Z,311.23
2023-03-01T22:08:49.193Z,312.58
2023-03-01T22:11:18.194Z,323.45
2023-03-01T22:13:49.661Z,347.48
2023-03-01T22:16:17.538Z,349.33
2023-03-01T22:18:45.027Z,352.70
2023-03-01T22:21:12.438Z,346.25
2023-03-01T22:23:40.119Z,349.98
2023-03-01T22:26:07.844Z,345.15
2023-03-01T22:28:35.367Z,365.70
2023-03-01T22:31:06.028Z,363.75
2023-03-01T22:33:33.545Z,354.38
2023-03-01T22:36:01.131Z,373.05
2023-03-01T22:38:28.549Z,370.42
2023-03-01T22:40:59.732Z,368.25
2023-03-01T22:43:27.438Z,360.38
2023-03-01T22:45:55.009Z,351.88
2023-03-01T22:48:22.479Z,331.65
2023-03-01T22:50:50.151Z,319.33
2023-03-01T22:53:19.252Z,294.85
2023-03-01T22:55:46.655Z,318.10
2023-03-01T22:58:14.174Z,334.20
2023-03-01T23:00:41.579Z,324.05
2023-03-01T23:03:09.234Z,311.80
2023-03-01T23:05:36.756Z,294.20
2023-03-01T23:08:04.247Z,290.23
2023-03-01T23:10:31.670Z,287.08
2023-03-01T23:12:59.103Z,283.00
2023-03-01T23:15:26.541Z,419.40
2023-03-01T23:17:53.964Z,399.08
2023-03-01T23:20:21.609Z,387.08
2023-03-01T23:22:49.134Z,350.77
2023-03-01T23:25:16.712Z,325.58
2023-03-01T23:27:44.210Z,322.73
2023-03-01T23:30:12.056Z,313.45
2023-03-01T23:32:40.904Z,337.70
2023-03-01T23:35:11.546Z,345.92
2023-03-01T23:37:39.054Z,347.60
2023-03-01T23:40:06.837Z,331.75
2023-03-01T23:42:34.697Z,333.42
2023-03-01T23:45:02.276Z,338.05
2023-03-01T23:47:29.814Z,305.52
2023-03-01T23:49:57.480Z,301.42
2023-03-01T23:52:27.306Z,316.30
2023-03-01T23:54:54.893Z,290.63
2023-03-01T23:57:22.483Z,298.60
2023-03-01T23:59:50.907Z,289.50
